sensor_id;sensor_type;location;lat;lon;timestamp;P1;durP1;ratioP1;P2;durP2;ratioP2
42668;SDS011;29384;42.028;21.388;2022-07-18T00:00:04;0.90;;;0.90;;
42668;SDS011;29384;42.028;21.388;2022-07-18T00:02:31;0.77;;;0.77;;
42668;SDS011;29384;42.028;21.388;2022-07-18T00:04:57;0.77;;;0.77;;
42668;SDS011;29384;42.028;21.388;2022-07-18T00:07:22;1.15;;;1.15;;
42668;SDS011;29384;42.028;21.388;2022-07-18T00:09:48;1.52;;;1.15;;
42668;SDS011;29384;42.028;21.388;2022-07-18T00:12:14;1.02;;;0.98;;
42668;SDS011;29384;42.028;21.388;2022-07-18T00:14:39;4.68;;;1.27;;
42668;SDS011;29384;42.028;21.388;2022-07-18T00:17:05;1.65;;;1.25;;
42668;SDS011;29384;42.028;21.388;2022-07-18T00:19:32;1.58;;;1.48;;
42668;SDS011;29384;42.028;21.388;2022-07-18T00:21:58;9.63;;;1.88;;
42668;SDS011;29384;42.028;21.388;2022-07-18T00:24:23;0.60;;;0.60;;
42668;SDS011;29384;42.028;21.388;2022-07-18T00:26:49;1.58;;;1.27;;
42668;SDS011;29384;42.028;21.388;2022-07-18T00:29:14;1.15;;;0.98;;
42668;SDS011;29384;42.028;21.388;2022-07-18T00:31:40;1.58;;;0.80;;
42668;SDS011;29384;42.028;21.388;2022-07-18T00:34:05;1.65;;;1.05;;
42668;SDS011;29384;42.028;21.388;2022-07-18T00:36:31;6.80;;;1.42;;
42668;SDS011;29384;42.028;21.388;2022-07-18T00:38:57;1.50;;;0.77;;
42668;SDS011;29384;42.028;21.388;2022-07-18T00:41:24;2.42;;;1.33;;
42668;SDS011;29384;42.028;21.388;2022-07-18T00:43:50;1.17;;;1.13;;
42668;SDS011;29384;42.028;21.388;2022-07-18T00:46:20;1.02;;;0.98;;
42668;SDS011;29384;42.028;21.388;2022-07-18T00:48:47;1.20;;;0.70;;
42668;SDS011;29384;42.028;21.388;2022-07-18T00:51:13;1.00;;;1.00;;
42668;SDS011;29384;42.028;21.388;2022-07-18T00:53:38;3.13;;;0.80;;
42668;SDS011;29384;42.028;21.388;2022-07-18T00:56:04;2.85;;;1.38;;
42668;SDS011;29384;42.028;21.388;2022-07-18T00:58:29;3.13;;;0.90;;
42668;SDS011;29384;42.028;21.388;2022-07-18T01:00:55;0.80;;;0.80;;
42668;SDS011;29384;42.028;21.388;2022-07-18T01:03:40;1.88;;;0.75;;
42668;SDS011;29384;42.028;21.388;2022-07-18T01:06:06;3.42;;;1.05;;
42668;SDS011;29384;42.028;21.388;2022-07-18T01:08:32;1.20;;;1.10;;
42668;SDS011;29384;42.028;21.388;2022-07-18T01:10:57;1.08;;;1.05;;
42668;SDS011;29384;42.028;21.388;2022-07-18T01:13:23;1.63;;;1.00;;
42668;SDS011;29384;42.028;21.388;2022-07-18T01:15:49;5.05;;;0.88;;
42668;SDS011;29384;42.028;21.388;2022-07-18T01:18:14;19.05;;;1.40;;
42668;SDS011;29384;42.028;21.388;2022-07-18T01:20:40;1.40;;;0.85;;
42668;SDS011;29384;42.028;21.388;2022-07-18T01:23:05;1.88;;;1.13;;
42668;SDS011;29384;42.028;21.388;2022-07-18T01:25:31;1.98;;;1.00;;
42668;SDS011;29384;42.028;21.388;2022-07-18T01:27:57;2.28;;;0.75;;
42668;SDS011;29384;42.028;21.388;2022-07-18T01:30:23;1.65;;;1.00;;
42668;SDS011;29384;42.028;21.388;2022-07-18T01:32:59;4.57;;;1.10;;
42668;SDS011;29384;42.028;21.388;2022-07-18T01:35:26;8.10;;;1.10;;
42668;SDS011;29384;42.028;21.388;2022-07-18T01:37:54;2.60;;;1.13;;
42668;SDS011;29384;42.028;21.388;2022-07-18T01:40:22;6.32;;;1.80;;
42668;SDS011;29384;42.028;21.388;2022-07-18T01:42:49;2.28;;;1.20;;
42668;SDS011;29384;42.028;21.388;2022-07-18T01:45:15;1.80;;;1.33;;
42668;SDS011;29384;42.028;21.388;2022-07-18T01:47:40;1.25;;;1.20;;
42668;SDS011;29384;42.028;21.388;2022-07-18T01:50:07;1.45;;;1.35;;
42668;SDS011;29384;42.028;21.388;2022-07-18T01:52:34;7.10;;;1.50;;
42668;SDS011;29384;42.028;21.388;2022-07-18T01:54:59;6.35;;;2.05;;
42668;SDS011;29384;42.028;21.388;2022-07-18T01:57:25;1.23;;;1.23;;
42668;SDS011;29384;42.028;21.388;2022-07-18T01:59:51;1.00;;;1.00;;
42668;SDS011;29384;42.028;21.388;2022-07-18T02:02:17;3.20;;;0.80;;
42668;SDS011;29384;42.028;21.388;2022-07-18T02:04:42;2.00;;;0.65;;
42668;SDS011;29384;42.028;21.388;2022-07-18T02:07:33;1.00;;;1.00;;
42668;SDS011;29384;42.028;21.388;2022-07-18T02:10:04;2.83;;;1.10;;
42668;SDS011;29384;42.028;21.388;2022-07-18T02:12:32;0.90;;;0.90;;
42668;SDS011;29384;42.028;21.388;2022-07-18T02:14:58;2.63;;;1.15;;
42668;SDS011;29384;42.028;21.388;2022-07-18T02:17:23;2.78;;;0.98;;
42668;SDS011;29384;42.028;21.388;2022-07-18T02:19:49;2.78;;;1.67;;
42668;SDS011;29384;42.028;21.388;2022-07-18T02:22:14;3.80;;;1.35;;
42668;SDS011;29384;42.028;21.388;2022-07-18T02:24:40;5.15;;;1.40;;
42668;SDS011;29384;42.028;21.388;2022-07-18T02:27:05;2.10;;;1.30;;
42668;SDS011;29384;42.028;21.388;2022-07-18T02:29:31;1.73;;;1.63;;
42668;SDS011;29384;42.028;21.388;2022-07-18T02:31:57;1.60;;;1.13;;
42668;SDS011;29384;42.028;21.388;2022-07-18T02:34:22;2.38;;;1.30;;
42668;SDS011;29384;42.028;21.388;2022-07-18T02:36:48;2.78;;;1.83;;
42668;SDS011;29384;42.028;21.388;2022-07-18T02:39:15;2.45;;;1.58;;
42668;SDS011;29384;42.028;21.388;2022-07-18T02:41:42;1.70;;;1.15;;
42668;SDS011;29384;42.028;21.388;2022-07-18T02:44:07;2.20;;;1.00;;
42668;SDS011;29384;42.028;21.388;2022-07-18T02:46:33;1.55;;;1.05;;
42668;SDS011;29384;42.028;21.388;2022-07-18T02:48:59;4.75;;;1.35;;
42668;SDS011;29384;42.028;21.388;2022-07-18T02:51:24;1.77;;;1.63;;
42668;SDS011;29384;42.028;21.388;2022-07-18T02:53:51;3.92;;;1.13;;
42668;SDS011;29384;42.028;21.388;2022-07-18T02:56:16;3.50;;;1.30;;
42668;SDS011;29384;42.028;21.388;2022-07-18T02:58:42;3.55;;;1.15;;
42668;SDS011;29384;42.028;21.388;2022-07-18T03:01:07;1.30;;;1.10;;
42668;SDS011;29384;42.028;21.388;2022-07-18T03:03:33;0.73;;;0.73;;
42668;SDS011;29384;42.028;21.388;2022-07-18T03:05:58;1.52;;;1.23;;
42668;SDS011;29384;42.028;21.388;2022-07-18T03:08:24;1.27;;;1.17;;
42668;SDS011;29384;42.028;21.388;2022-07-18T03:10:49;3.08;;;1.05;;
42668;SDS011;29384;42.028;21.388;2022-07-18T03:13:15;0.98;;;0.98;;
42668;SDS011;29384;42.028;21.388;2022-07-18T03:15:40;0.80;;;0.80;;
42668;SDS011;29384;42.028;21.388;2022-07-18T03:18:06;1.33;;;1.33;;
42668;SDS011;29384;42.028;21.388;2022-07-18T03:20:32;6.38;;;1.40;;
42668;SDS011;29384;42.028;21.388;2022-07-18T03:22:58;1.38;;;1.25;;
42668;SDS011;29384;42.028;21.388;2022-07-18T03:25:23;3.13;;;1.23;;
42668;SDS011;29384;42.028;21.388;2022-07-18T03:27:49;0.90;;;0.90;;
42668;SDS011;29384;42.028;21.388;2022-07-18T03:30:15;1.38;;;1.15;;
42668;SDS011;29384;42.028;21.388;2022-07-18T03:32:41;0.63;;;0.63;;
42668;SDS011;29384;42.028;21.388;2022-07-18T03:35:07;2.95;;;1.40;;
42668;SDS011;29384;42.028;21.388;2022-07-18T03:37:32;5.50;;;0.95;;
42668;SDS011;29384;42.028;21.388;2022-07-18T03:39:58;1.17;;;1.17;;
42668;SDS011;29384;42.028;21.388;2022-07-18T03:42:23;2.03;;;1.13;;
42668;SDS011;29384;42.028;21.388;2022-07-18T03:44:49;1.17;;;0.60;;
42668;SDS011;29384;42.028;21.388;2022-07-18T03:47:14;1.20;;;1.10;;
42668;SDS011;29384;42.028;21.388;2022-07-18T03:49:40;1.15;;;1.15;;
42668;SDS011;29384;42.028;21.388;2022-07-18T03:52:05;6.70;;;1.70;;
42668;SDS011;29384;42.028;21.388;2022-07-18T03:54:31;1.23;;;1.00;;
42668;SDS011;29384;42.028;21.388;2022-07-18T03:56:57;3.17;;;0.75;;
42668;SDS011;29384;42.028;21.388;2022-07-18T03:59:22;3.13;;;0.90;;
42668;SDS011;29384;42.028;21.388;2022-07-18T04:01:48;2.85;;;1.17;;
42668;SDS011;29384;42.028;21.388;2022-07-18T04:04:13;1.08;;;0.63;;
42668;SDS011;29384;42.028;21.388;2022-07-18T04:06:39;1.67;;;1.00;;
42668;SDS011;29384;42.028;21.388;2022-07-18T04:09:04;2.40;;;1.30;;
42668;SDS011;29384;42.028;21.388;2022-07-18T04:11:30;1.00;;;0.90;;
42668;SDS011;29384;42.028;21.388;2022-07-18T04:13:56;1.52;;;1.40;;
42668;SDS011;29384;42.028;21.388;2022-07-18T04:16:21;5.90;;;1.30;;
42668;SDS011;29384;42.028;21.388;2022-07-18T04:18:47;2.00;;;1.42;;
42668;SDS011;29384;42.028;21.388;2022-07-18T04:21:13;1.13;;;1.02;;
42668;SDS011;29384;42.028;21.388;2022-07-18T04:23:39;1.33;;;0.90;;
42668;SDS011;29384;42.028;21.388;2022-07-18T04:26:05;0.82;;;0.82;;
42668;SDS011;29384;42.028;21.388;2022-07-18T04:28:31;1.67;;;1.00;;
42668;SDS011;29384;42.028;21.388;2022-07-18T04:30:56;2.28;;;1.00;;
42668;SDS011;29384;42.028;21.388;2022-07-18T04:33:22;1.10;;;1.10;;
42668;SDS011;29384;42.028;21.388;2022-07-18T04:35:48;9.63;;;1.48;;
42668;SDS011;29384;42.028;21.388;2022-07-18T04:38:14;1.00;;;1.00;;
42668;SDS011;29384;42.028;21.388;2022-07-18T04:40:40;1.52;;;1.02;;
42668;SDS011;29384;42.028;21.388;2022-07-18T04:43:05;1.10;;;1.10;;
42668;SDS011;29384;42.028;21.388;2022-07-18T04:45:31;0.80;;;0.80;;
42668;SDS011;29384;42.028;21.388;2022-07-18T04:47:58;1.58;;;0.80;;
42668;SDS011;29384;42.028;21.388;2022-07-18T04:50:24;0.98;;;0.98;;
42668;SDS011;29384;42.028;21.388;2022-07-18T04:52:50;1.92;;;1.65;;
42668;SDS011;29384;42.028;21.388;2022-07-18T04:55:17;1.90;;;1.13;;
42668;SDS011;29384;42.028;21.388;2022-07-18T04:57:44;1.10;;;1.00;;
42668;SDS011;29384;42.028;21.388;2022-07-18T05:00:14;1.15;;;0.98;;
42668;SDS011;29384;42.028;21.388;2022-07-18T05:02:46;2.20;;;0.90;;
42668;SDS011;29384;42.028;21.388;2022-07-18T05:05:14;1.20;;;1.10;;
42668;SDS011;29384;42.028;21.388;2022-07-18T05:07:41;3.33;;;1.30;;
42668;SDS011;29384;42.028;21.388;2022-07-18T05:10:09;4.28;;;1.63;;
42668;SDS011;29384;42.028;21.388;2022-07-18T05:12:35;2.38;;;1.60;;
42668;SDS011;29384;42.028;21.388;2022-07-18T05:15:04;1.80;;;0.93;;
42668;SDS011;29384;42.028;21.388;2022-07-18T05:17:31;1.50;;;0.70;;
42668;SDS011;29384;42.028;21.388;2022-07-18T05:19:56;1.25;;;0.95;;
42668;SDS011;29384;42.028;21.388;2022-07-18T05:22:22;0.60;;;0.60;;
42668;SDS011;29384;42.028;21.388;2022-07-18T05:24:48;1.25;;;1.00;;
42668;SDS011;29384;42.028;21.388;2022-07-18T05:27:13;0.82;;;0.82;;
42668;SDS011;29384;42.028;21.388;2022-07-18T05:29:39;2.45;;;0.80;;
42668;SDS011;29384;42.028;21.388;2022-07-18T05:32:05;1.70;;;1.50;;
42668;SDS011;29384;42.028;21.388;2022-07-18T05:34:32;0.70;;;0.70;;
42668;SDS011;29384;42.028;21.388;2022-07-18T05:36:58;5.20;;;1.05;;
42668;SDS011;29384;42.028;21.388;2022-07-18T05:39:23;11.90;;;1.08;;
42668;SDS011;29384;42.028;21.388;2022-07-18T05:41:49;0.95;;;0.95;;
42668;SDS011;29384;42.028;21.388;2022-07-18T05:44:14;7.78;;;1.50;;
42668;SDS011;29384;42.028;21.388;2022-07-18T05:46:40;2.97;;;0.95;;
42668;SDS011;29384;42.028;21.388;2022-07-18T05:49:05;3.95;;;1.02;;
42668;SDS011;29384;42.028;21.388;2022-07-18T05:51:31;2.13;;;0.88;;
42668;SDS011;29384;42.028;21.388;2022-07-18T05:53:56;0.93;;;0.93;;
42668;SDS011;29384;42.028;21.388;2022-07-18T05:56:22;4.95;;;1.48;;
42668;SDS011;29384;42.028;21.388;2022-07-18T05:58:47;0.80;;;0.80;;
42668;SDS011;29384;42.028;21.388;2022-07-18T06:01:13;0.52;;;0.40;;
42668;SDS011;29384;42.028;21.388;2022-07-18T06:03:44;4.45;;;0.77;;
42668;SDS011;29384;42.028;21.388;2022-07-18T06:06:10;0.77;;;0.77;;
42668;SDS011;29384;42.028;21.388;2022-07-18T06:08:36;0.80;;;0.80;;
42668;SDS011;29384;42.028;21.388;2022-07-18T06:11:01;2.67;;;0.70;;
42668;SDS011;29384;42.028;21.388;2022-07-18T06:13:29;0.95;;;0.52;;
42668;SDS011;29384;42.028;21.388;2022-07-18T06:15:55;0.70;;;0.60;;
42668;SDS011;29384;42.028;21.388;2022-07-18T06:18:20;8.07;;;1.05;;
42668;SDS011;29384;42.028;21.388;2022-07-18T06:20:46;1.92;;;0.57;;
42668;SDS011;29384;42.028;21.388;2022-07-18T06:23:11;3.75;;;1.15;;
42668;SDS011;29384;42.028;21.388;2022-07-18T06:25:37;0.57;;;0.57;;
42668;SDS011;29384;42.028;21.388;2022-07-18T06:28:03;3.05;;;0.40;;
42668;SDS011;29384;42.028;21.388;2022-07-18T06:30:28;1.33;;;0.40;;
42668;SDS011;29384;42.028;21.388;2022-07-18T06:32:54;6.13;;;0.90;;
42668;SDS011;29384;42.028;21.388;2022-07-18T06:35:19;1.75;;;0.82;;
42668;SDS011;29384;42.028;21.388;2022-07-18T06:37:45;1.35;;;1.25;;
42668;SDS011;29384;42.028;21.388;2022-07-18T06:40:11;0.50;;;0.50;;
42668;SDS011;29384;42.028;21.388;2022-07-18T06:42:37;0.80;;;0.50;;
42668;SDS011;29384;42.028;21.388;2022-07-18T06:45:02;1.00;;;0.52;;
42668;SDS011;29384;42.028;21.388;2022-07-18T06:47:29;0.50;;;0.50;;
42668;SDS011;29384;42.028;21.388;2022-07-18T06:49:54;1.05;;;0.40;;
42668;SDS011;29384;42.028;21.388;2022-07-18T06:52:20;0.35;;;0.35;;
42668;SDS011;29384;42.028;21.388;2022-07-18T06:54:45;0.52;;;0.32;;
42668;SDS011;29384;42.028;21.388;2022-07-18T06:57:11;0.40;;;0.40;;
42668;SDS011;29384;42.028;21.388;2022-07-18T06:59:36;2.92;;;0.85;;
42668;SDS011;29384;42.028;21.388;2022-07-18T07:02:02;13.05;;;0.98;;
42668;SDS011;29384;42.028;21.388;2022-07-18T07:04:28;0.20;;;0.20;;
42668;SDS011;29384;42.028;21.388;2022-07-18T07:06:53;0.47;;;0.47;;
42668;SDS011;29384;42.028;21.388;2022-07-18T07:09:19;0.65;;;0.65;;
42668;SDS011;29384;42.028;21.388;2022-07-18T07:11:44;2.20;;;0.60;;
42668;SDS011;29384;42.028;21.388;2022-07-18T07:14:10;2.38;;;0.77;;
42668;SDS011;29384;42.028;21.388;2022-07-18T07:16:35;3.58;;;0.82;;
42668;SDS011;29384;42.028;21.388;2022-07-18T07:19:01;6.55;;;1.40;;
42668;SDS011;29384;42.028;21.388;2022-07-18T07:21:26;2.80;;;0.52;;
42668;SDS011;29384;42.028;21.388;2022-07-18T07:23:52;8.50;;;0.88;;
42668;SDS011;29384;42.028;21.388;2022-07-18T07:26:18;0.32;;;0.32;;
42668;SDS011;29384;42.028;21.388;2022-07-18T07:28:43;0.20;;;0.20;;
42668;SDS011;29384;42.028;21.388;2022-07-18T07:31:09;1.15;;;0.40;;
42668;SDS011;29384;42.028;21.388;2022-07-18T07:33:34;0.65;;;0.30;;
42668;SDS011;29384;42.028;21.388;2022-07-18T07:36:00;0.38;;;0.38;;
42668;SDS011;29384;42.028;21.388;2022-07-18T07:38:26;1.63;;;0.38;;
42668;SDS011;29384;42.028;21.388;2022-07-18T07:40:54;0.68;;;0.63;;
42668;SDS011;29384;42.028;21.388;2022-07-18T07:43:20;0.88;;;0.88;;
42668;SDS011;29384;42.028;21.388;2022-07-18T07:45:46;0.52;;;0.52;;
42668;SDS011;29384;42.028;21.388;2022-07-18T07:48:14;0.38;;;0.25;;
42668;SDS011;29384;42.028;21.388;2022-07-18T07:50:40;1.98;;;0.57;;
42668;SDS011;29384;42.028;21.388;2022-07-18T07:53:06;8.05;;;0.88;;
42668;SDS011;29384;42.028;21.388;2022-07-18T07:55:32;2.42;;;0.55;;
42668;SDS011;29384;42.028;21.388;2022-07-18T07:57:57;0.30;;;0.30;;
42668;SDS011;29384;42.028;21.388;2022-07-18T08:00:23;0.30;;;0.30;;
42668;SDS011;29384;42.028;21.388;2022-07-18T08:02:59;0.50;;;0.38;;
42668;SDS011;29384;42.028;21.388;2022-07-18T08:05:27;0.50;;;0.50;;
42668;SDS011;29384;42.028;21.388;2022-07-18T08:07:53;0.80;;;0.80;;
42668;SDS011;29384;42.028;21.388;2022-07-18T08:10:19;0.50;;;0.50;;
42668;SDS011;29384;42.028;21.388;2022-07-18T08:12:45;1.23;;;0.35;;
42668;SDS011;29384;42.028;21.388;2022-07-18T08:15:11;0.35;;;0.35;;
42668;SDS011;29384;42.028;21.388;2022-07-18T08:17:36;0.47;;;0.47;;
42668;SDS011;29384;42.028;21.388;2022-07-18T08:20:02;2.72;;;0.70;;
42668;SDS011;29384;42.028;21.388;2022-07-18T08:22:28;2.17;;;0.52;;
42668;SDS011;29384;42.028;21.388;2022-07-18T08:24:54;0.40;;;0.40;;
42668;SDS011;29384;42.028;21.388;2022-07-18T08:27:19;0.80;;;0.73;;
42668;SDS011;29384;42.028;21.388;2022-07-18T08:29:45;0.30;;;0.30;;
42668;SDS011;29384;42.028;21.388;2022-07-18T08:32:10;1.75;;;0.60;;
42668;SDS011;29384;42.028;21.388;2022-07-18T08:34:36;0.65;;;0.32;;
42668;SDS011;29384;42.028;21.388;2022-07-18T08:37:01;0.30;;;0.30;;
42668;SDS011;29384;42.028;21.388;2022-07-18T08:39:27;0.50;;;0.50;;
42668;SDS011;29384;42.028;21.388;2022-07-18T08:41:52;0.35;;;0.35;;
42668;SDS011;29384;42.028;21.388;2022-07-18T08:44:19;0.30;;;0.30;;
42668;SDS011;29384;42.028;21.388;2022-07-18T08:46:48;3.50;;;0.40;;
42668;SDS011;29384;42.028;21.388;2022-07-18T08:49:15;0.82;;;0.25;;
42668;SDS011;29384;42.028;21.388;2022-07-18T08:51:42;0.82;;;0.77;;
42668;SDS011;29384;42.028;21.388;2022-07-18T08:54:08;0.30;;;0.30;;
42668;SDS011;29384;42.028;21.388;2022-07-18T08:56:34;0.43;;;0.30;;
42668;SDS011;29384;42.028;21.388;2022-07-18T08:59:00;0.60;;;0.60;;
42668;SDS011;29384;42.028;21.388;2022-07-18T09:01:28;0.40;;;0.40;;
42668;SDS011;29384;42.028;21.388;2022-07-18T09:03:56;4.78;;;0.35;;
42668;SDS011;29384;42.028;21.388;2022-07-18T09:06:46;0.52;;;0.52;;
42668;SDS011;29384;42.028;21.388;2022-07-18T09:09:14;0.40;;;0.40;;
42668;SDS011;29384;42.028;21.388;2022-07-18T09:14:31;1.23;;;0.52;;
42668;SDS011;29384;42.028;21.388;2022-07-18T09:17:06;0.47;;;0.30;;
42668;SDS011;29384;42.028;21.388;2022-07-18T09:19:38;3.95;;;0.40;;
42668;SDS011;29384;42.028;21.388;2022-07-18T09:22:18;0.20;;;0.20;;
42668;SDS011;29384;42.028;21.388;2022-07-18T09:25:05;2.85;;;0.50;;
42668;SDS011;29384;42.028;21.388;2022-07-18T09:27:40;0.32;;;0.32;;
42668;SDS011;29384;42.028;21.388;2022-07-18T09:35:29;1.00;;;0.88;;
42668;SDS011;29384;42.028;21.388;2022-07-18T09:40:36;0.20;;;0.20;;
42668;SDS011;29384;42.028;21.388;2022-07-18T09:43:05;0.30;;;0.30;;
42668;SDS011;29384;42.028;21.388;2022-07-18T09:45:33;0.43;;;0.43;;
42668;SDS011;29384;42.028;21.388;2022-07-18T09:48:01;0.40;;;0.40;;
42668;SDS011;29384;42.028;21.388;2022-07-18T09:52:57;0.93;;;0.30;;
42668;SDS011;29384;42.028;21.388;2022-07-18T09:55:24;0.15;;;0.15;;
42668;SDS011;29384;42.028;21.388;2022-07-18T09:57:58;2.15;;;0.20;;
42668;SDS011;29384;42.028;21.388;2022-07-18T10:00:25;0.75;;;0.40;;
42668;SDS011;29384;42.028;21.388;2022-07-18T10:02:52;0.52;;;0.52;;
42668;SDS011;29384;42.028;21.388;2022-07-18T10:05:17;0.40;;;0.10;;
42668;SDS011;29384;42.028;21.388;2022-07-18T10:07:43;0.50;;;0.50;;
42668;SDS011;29384;42.028;21.388;2022-07-18T10:10:08;0.30;;;0.30;;
42668;SDS011;29384;42.028;21.388;2022-07-18T10:12:34;0.50;;;0.50;;
42668;SDS011;29384;42.028;21.388;2022-07-18T10:15:00;0.40;;;0.40;;
42668;SDS011;29384;42.028;21.388;2022-07-18T10:17:26;0.55;;;0.55;;
42668;SDS011;29384;42.028;21.388;2022-07-18T10:19:52;0.43;;;0.43;;
42668;SDS011;29384;42.028;21.388;2022-07-18T10:22:17;6.40;;;1.08;;
42668;SDS011;29384;42.028;21.388;2022-07-18T10:24:43;0.93;;;0.93;;
42668;SDS011;29384;42.028;21.388;2022-07-18T10:27:16;2.78;;;0.50;;
42668;SDS011;29384;42.028;21.388;2022-07-18T10:32:34;0.85;;;0.50;;
42668;SDS011;29384;42.028;21.388;2022-07-18T10:35:00;0.47;;;0.47;;
42668;SDS011;29384;42.028;21.388;2022-07-18T10:37:25;0.52;;;0.45;;
42668;SDS011;29384;42.028;21.388;2022-07-18T10:39:56;0.68;;;0.50;;
42668;SDS011;29384;42.028;21.388;2022-07-18T10:46:04;0.57;;;0.57;;
42668;SDS011;29384;42.028;21.388;2022-07-18T10:56:19;1.02;;;0.52;;
42668;SDS011;29384;42.028;21.388;2022-07-18T10:59:17;1.17;;;0.30;;
42668;SDS011;29384;42.028;21.388;2022-07-18T11:01:54;0.30;;;0.30;;
42668;SDS011;29384;42.028;21.388;2022-07-18T11:04:31;0.60;;;0.60;;
42668;SDS011;29384;42.028;21.388;2022-07-18T11:07:17;4.05;;;0.55;;
42668;SDS011;29384;42.028;21.388;2022-07-18T11:12:18;0.45;;;0.45;;
42668;SDS011;29384;42.028;21.388;2022-07-18T11:22:58;17.08;;;1.63;;
42668;SDS011;29384;42.028;21.388;2022-07-18T11:25:26;0.40;;;0.40;;
42668;SDS011;29384;42.028;21.388;2022-07-18T11:27:53;0.40;;;0.32;;
42668;SDS011;29384;42.028;21.388;2022-07-18T11:30:20;3.28;;;0.57;;
42668;SDS011;29384;42.028;21.388;2022-07-18T11:32:46;2.17;;;0.95;;
42668;SDS011;29384;42.028;21.388;2022-07-18T11:35:12;0.40;;;0.40;;
42668;SDS011;29384;42.028;21.388;2022-07-18T11:37:38;1.70;;;0.38;;
42668;SDS011;29384;42.028;21.388;2022-07-18T11:40:11;1.60;;;0.82;;
42668;SDS011;29384;42.028;21.388;2022-07-18T11:42:39;1.42;;;0.38;;
42668;SDS011;29384;42.028;21.388;2022-07-18T11:45:07;0.57;;;0.55;;
42668;SDS011;29384;42.028;21.388;2022-07-18T11:47:38;0.38;;;0.38;;
42668;SDS011;29384;42.028;21.388;2022-07-18T11:50:14;21.13;;;1.08;;
42668;SDS011;29384;42.028;21.388;2022-07-18T11:52:40;0.30;;;0.30;;
42668;SDS011;29384;42.028;21.388;2022-07-18T11:55:07;4.07;;;0.93;;
42668;SDS011;29384;42.028;21.388;2022-07-18T11:57:33;0.73;;;0.68;;
42668;SDS011;29384;42.028;21.388;2022-07-18T12:00:00;0.45;;;0.45;;
42668;SDS011;29384;42.028;21.388;2022-07-18T12:16:38;0.30;;;0.30;;
42668;SDS011;29384;42.028;21.388;2022-07-18T12:19:21;0.95;;;0.50;;
42668;SDS011;29384;42.028;21.388;2022-07-18T12:26:45;0.28;;;0.28;;
42668;SDS011;29384;42.028;21.388;2022-07-18T12:29:10;0.35;;;0.20;;
42668;SDS011;29384;42.028;21.388;2022-07-18T12:31:40;0.40;;;0.40;;
42668;SDS011;29384;42.028;21.388;2022-07-18T12:36:49;0.30;;;0.30;;
42668;SDS011;29384;42.028;21.388;2022-07-18T12:39:32;2.85;;;0.43;;
42668;SDS011;29384;42.028;21.388;2022-07-18T12:41:59;0.40;;;0.40;;
42668;SDS011;29384;42.028;21.388;2022-07-18T12:44:25;0.40;;;0.40;;
42668;SDS011;29384;42.028;21.388;2022-07-18T12:46:52;2.95;;;0.47;;
42668;SDS011;29384;42.028;21.388;2022-07-18T12:49:18;1.05;;;0.50;;
42668;SDS011;29384;42.028;21.388;2022-07-18T12:51:44;0.75;;;0.43;;
42668;SDS011;29384;42.028;21.388;2022-07-18T12:54:10;0.30;;;0.30;;
42668;SDS011;29384;42.028;21.388;2022-07-18T12:56:36;0.73;;;0.73;;
42668;SDS011;29384;42.028;21.388;2022-07-18T12:59:01;1.65;;;0.52;;
42668;SDS011;29384;42.028;21.388;2022-07-18T13:01:27;1.92;;;0.63;;
42668;SDS011;29384;42.028;21.388;2022-07-18T13:03:53;0.43;;;0.43;;
42668;SDS011;29384;42.028;21.388;2022-07-18T13:06:18;0.60;;;0.60;;
42668;SDS011;29384;42.028;21.388;2022-07-18T13:08:44;0.40;;;0.40;;
42668;SDS011;29384;42.028;21.388;2022-07-18T13:11:09;0.10;;;0.10;;
42668;SDS011;29384;42.028;21.388;2022-07-18T13:13:35;0.20;;;0.20;;
42668;SDS011;29384;42.028;21.388;2022-07-18T13:16:00;0.50;;;0.50;;
42668;SDS011;29384;42.028;21.388;2022-07-18T13:18:26;1.25;;;0.60;;
42668;SDS011;29384;42.028;21.388;2022-07-18T13:20:51;3.83;;;0.73;;
42668;SDS011;29384;42.028;21.388;2022-07-18T13:23:17;0.73;;;0.40;;
42668;SDS011;29384;42.028;21.388;2022-07-18T13:25:43;0.50;;;0.50;;
42668;SDS011;29384;42.028;21.388;2022-07-18T13:28:09;4.30;;;0.50;;
42668;SDS011;29384;42.028;21.388;2022-07-18T13:30:34;0.38;;;0.38;;
42668;SDS011;29384;42.028;21.388;2022-07-18T13:33:00;2.45;;;0.40;;
42668;SDS011;29384;42.028;21.388;2022-07-18T13:35:26;2.72;;;0.30;;
42668;SDS011;29384;42.028;21.388;2022-07-18T13:37:52;2.47;;;0.32;;
42668;SDS011;29384;42.028;21.388;2022-07-18T13:40:17;0.30;;;0.30;;
42668;SDS011;29384;42.028;21.388;2022-07-18T13:42:43;0.52;;;0.32;;
42668;SDS011;29384;42.028;21.388;2022-07-18T13:45:09;3.05;;;0.57;;
42668;SDS011;29384;42.028;21.388;2022-07-18T13:47:34;8.63;;;0.77;;
42668;SDS011;29384;42.028;21.388;2022-07-18T13:50:00;6.85;;;0.65;;
42668;SDS011;29384;42.028;21.388;2022-07-18T13:52:26;0.13;;;0.13;;
42668;SDS011;29384;42.028;21.388;2022-07-18T13:54:51;3.78;;;0.40;;
42668;SDS011;29384;42.028;21.388;2022-07-18T13:57:19;0.30;;;0.30;;
42668;SDS011;29384;42.028;21.388;2022-07-18T13:59:46;0.35;;;0.22;;
42668;SDS011;29384;42.028;21.388;2022-07-18T14:02:11;0.63;;;0.63;;
42668;SDS011;29384;42.028;21.388;2022-07-18T14:04:37;0.30;;;0.30;;
42668;SDS011;29384;42.028;21.388;2022-07-18T14:07:02;0.63;;;0.38;;
42668;SDS011;29384;42.028;21.388;2022-07-18T14:09:29;1.38;;;0.35;;
42668;SDS011;29384;42.028;21.388;2022-07-18T14:11:55;1.13;;;0.57;;
42668;SDS011;29384;42.028;21.388;2022-07-18T14:14:21;0.98;;;0.22;;
42668;SDS011;29384;42.028;21.388;2022-07-18T14:16:46;2.25;;;0.20;;
42668;SDS011;29384;42.028;21.388;2022-07-18T14:19:12;0.60;;;0.50;;
42668;SDS011;29384;42.028;21.388;2022-07-18T14:21:37;0.43;;;0.25;;
42668;SDS011;29384;42.028;21.388;2022-07-18T14:24:03;0.20;;;0.20;;
42668;SDS011;29384;42.028;21.388;2022-07-18T14:26:29;0.20;;;0.20;;
42668;SDS011;29384;42.028;21.388;2022-07-18T14:28:54;0.40;;;0.40;;
42668;SDS011;29384;42.028;21.388;2022-07-18T14:31:20;0.38;;;0.38;;
42668;SDS011;29384;42.028;21.388;2022-07-18T14:33:45;0.50;;;0.30;;
42668;SDS011;29384;42.028;21.388;2022-07-18T14:36:12;1.83;;;0.68;;
42668;SDS011;29384;42.028;21.388;2022-07-18T14:38:38;13.00;;;1.02;;
42668;SDS011;29384;42.028;21.388;2022-07-18T14:41:04;0.20;;;0.20;;
42668;SDS011;29384;42.028;21.388;2022-07-18T14:43:30;0.25;;;0.20;;
42668;SDS011;29384;42.028;21.388;2022-07-18T14:45:56;0.60;;;0.45;;
42668;SDS011;29384;42.028;21.388;2022-07-18T14:48:22;0.63;;;0.63;;
42668;SDS011;29384;42.028;21.388;2022-07-18T14:50:47;0.50;;;0.50;;
42668;SDS011;29384;42.028;21.388;2022-07-18T14:53:13;1.17;;;0.30;;
42668;SDS011;29384;42.028;21.388;2022-07-18T14:55:38;0.50;;;0.50;;
42668;SDS011;29384;42.028;21.388;2022-07-18T14:58:04;4.68;;;1.63;;
42668;SDS011;29384;42.028;21.388;2022-07-18T15:00:30;5.57;;;0.50;;
42668;SDS011;29384;42.028;21.388;2022-07-18T15:02:55;1.65;;;0.65;;
42668;SDS011;29384;42.028;21.388;2022-07-18T15:05:21;0.60;;;0.60;;
42668;SDS011;29384;42.028;21.388;2022-07-18T15:07:47;0.38;;;0.38;;
42668;SDS011;29384;42.028;21.388;2022-07-18T15:10:12;0.65;;;0.40;;
42668;SDS011;29384;42.028;21.388;2022-07-18T15:12:38;2.25;;;0.35;;
42668;SDS011;29384;42.028;21.388;2022-07-18T15:15:04;0.77;;;0.77;;
42668;SDS011;29384;42.028;21.388;2022-07-18T15:17:30;2.20;;;0.52;;
42668;SDS011;29384;42.028;21.388;2022-07-18T15:19:56;2.00;;;0.73;;
42668;SDS011;29384;42.028;21.388;2022-07-18T15:22:21;0.80;;;0.80;;
42668;SDS011;29384;42.028;21.388;2022-07-18T15:24:47;0.38;;;0.38;;
42668;SDS011;29384;42.028;21.388;2022-07-18T15:27:12;0.30;;;0.30;;
42668;SDS011;29384;42.028;21.388;2022-07-18T15:29:38;8.85;;;1.10;;